Time;durP1;ratioP1;P1;durP2;ratioP2;P2;SDS_P1;SDS_P2;PMS_P1;PMS_P2;Temp;Humidity;BMP_temperature;BMP_pressure;BME280_temperature;BME280_humidity;BME280_pressure;Samples;Min_cycle;Max_cycle;Signal;HPM_P1;HPM_P2
2021/05/04 00:00:31;;;;;;;7.13;1.50;;;;;;;10.67;69.83;99897.22;5043704;28;20030;-74
2021/05/04 00:02:57;;;;;;;5.45;1.50;;;;;;;10.69;70.59;99890.22;5024656;28;20075;-73
2021/05/04 00:05:23;;;;;;;5.88;1.60;;;;;;;10.69;70.73;99887.44;4998170;28;20025;-73
2021/05/04 00:07:48;;;;;;;7.45;1.88;;;;;;;10.69;69.79;99884.66;5002445;28;20022;-73
2021/05/04 00:10:14;;;;;;;7.32;1.65;;;;;;;10.70;70.81;99875.22;5039361;28;20037;-73
2021/05/04 00:12:39;;;;;;;8.90;1.52;;;;;;;10.71;71.71;99862.16;5018201;28;20029;-73
2021/05/04 00:15:07;;;;;;;4.95;1.70;;;;;;;10.69;71.23;99862.44;5020161;28;20021;-73
2021/05/04 00:17:32;;;;;;;5.65;1.40;;;;;;;10.71;70.16;99851.84;5013761;28;20030;-74
2021/05/04 00:19:58;;;;;;;8.52;1.35;;;;;;;10.70;71.57;99844.66;5047899;28;20034;-73
2021/05/04 00:22:23;;;;;;;7.97;1.60;;;;;;;10.70;71.52;99836.34;5016902;28;20037;-74
2021/05/04 00:24:49;;;;;;;6.63;1.50;;;;;;;10.71;71.31;99848.25;5001440;28;20026;-74
2021/05/04 00:27:14;;;;;;;5.38;1.55;;;;;;;10.74;71.16;99842.91;5060863;28;20029;-73
2021/05/04 00:29:40;;;;;;;6.93;1.60;;;;;;;10.77;72.13;99849.78;5030617;28;20029;-74
2021/05/04 00:32:05;;;;;;;9.45;2.17;;;;;;;10.78;72.08;99843.13;5035634;28;20485;-73
2021/05/04 00:34:31;;;;;;;7.15;1.65;;;;;;;10.82;71.95;99826.66;5032951;28;20108;-73
2021/05/04 00:36:57;;;;;;;5.30;1.60;;;;;;;10.80;72.05;99835.28;5000468;28;20105;-74
2021/05/04 00:39:27;;;;;;;4.25;1.38;;;;;;;10.80;71.30;99838.06;5033683;28;20072;-74
2021/05/04 00:41:52;;;;;;;7.47;1.48;;;;;;;10.83;71.60;99823.53;5032741;28;20025;-74
2021/05/04 00:44:18;;;;;;;6.93;1.20;;;;;;;10.84;72.11;99822.44;5052347;28;20064;-74
2021/05/04 00:46:44;;;;;;;4.13;1.42;;;;;;;10.85;71.41;99821.28;5030541;28;20033;-74
2021/05/04 00:49:10;;;;;;;8.20;1.65;;;;;;;10.81;72.58;99836.94;5061358;28;20029;-74
2021/05/04 00:51:35;;;;;;;6.35;1.77;;;;;;;10.83;72.58;99817.97;5014945;28;20030;-74
2021/05/04 00:54:02;;;;;;;7.88;1.50;;;;;;;10.85;72.68;99820.47;5029280;28;20033;-74
2021/05/04 00:56:27;;;;;;;5.50;1.80;;;;;;;10.82;73.19;99819.13;4988733;28;20087;-74
2021/05/04 00:58:53;;;;;;;5.43;1.38;;;;;;;10.85;70.92;99806.56;5014399;28;20045;-74
2021/05/04 01:01:19;;;;;;;8.85;1.50;;;;;;;10.82;72.31;99821.09;5029614;28;20036;-74
2021/05/04 01:03:44;;;;;;;7.85;2.00;;;;;;;10.83;73.63;99801.31;5002866;28;20064;-74
2021/05/04 01:06:10;;;;;;;9.05;1.60;;;;;;;10.81;73.01;99806.38;5014776;28;20060;-74
2021/05/04 01:08:37;;;;;;;7.40;1.40;;;;;;;10.82;73.05;99804.44;5024487;28;20053;-74
2021/05/04 01:11:02;;;;;;;8.02;2.00;;;;;;;10.82;72.70;99802.47;5014737;28;20029;-74
2021/05/04 01:13:28;;;;;;;7.32;1.85;;;;;;;10.85;72.16;99798.25;5031565;28;20385;-74
2021/05/04 01:15:53;;;;;;;6.55;1.50;;;;;;;10.83;72.46;99795.75;5046382;28;20486;-74
2021/05/04 01:18:19;;;;;;;7.82;1.70;;;;;;;10.79;72.08;99783.66;5013380;28;20037;-73
2021/05/04 01:20:50;;;;;;;7.32;1.65;;;;;;;10.84;72.82;99774.38;5031828;28;20036;-74
2021/05/04 01:23:16;;;;;;;7.15;1.35;;;;;;;10.85;72.59;99773.25;5031697;28;20091;-74
2021/05/04 01:25:42;;;;;;;8.38;2.15;;;;;;;10.85;73.04;99765.72;5026390;28;20029;-73
2021/05/04 01:28:07;;;;;;;6.72;1.58;;;;;;;10.85;73.75;99771.28;5050223;28;20026;-73
2021/05/04 01:30:33;;;;;;;8.10;1.65;;;;;;;10.84;73.65;99758.53;5033487;28;20379;-74
2021/05/04 01:33:00;;;;;;;6.90;1.27;;;;;;;10.84;73.62;99764.09;5027489;28;20033;-73
2021/05/04 01:35:26;;;;;;;7.28;1.67;;;;;;;10.84;74.49;99747.44;5019177;28;20049;-74
2021/05/04 01:37:52;;;;;;;6.05;1.77;;;;;;;10.86;73.06;99745.13;5028845;28;20044;-74
2021/05/04 01:40:18;;;;;;;10.25;2.15;;;;;;;10.86;74.26;99742.34;5024661;28;20037;-74
2021/05/04 01:42:45;;;;;;;7.10;1.70;;;;;;;10.90;73.78;99729.50;5021283;28;20030;-73
2021/05/04 01:45:14;;;;;;;8.73;2.20;;;;;;;10.85;75.08;99732.38;5028441;28;20025;-74
2021/05/04 01:47:40;;;;;;;10.57;2.08;;;;;;;10.87;74.06;99730.13;5032116;28;20072;-74
2021/05/04 01:50:06;;;;;;;5.05;1.48;;;;;;;10.93;74.98;99720.53;5040538;28;20053;-74
2021/05/04 01:52:32;;;;;;;5.85;1.48;;;;;;;10.90;75.79;99725.91;5044280;28;20164;-74
2021/05/04 01:54:59;;;;;;;7.18;1.80;;;;;;;10.92;74.64;99729.16;5032794;28;20389;-74
2021/05/04 01:57:24;;;;;;;10.73;2.00;;;;;;;10.92;74.53;99706.94;5012481;28;20093;-74
2021/05/04 01:59:50;;;;;;;10.25;2.10;;;;;;;10.94;74.95;99713.00;5034182;28;20383;-74
2021/05/04 02:02:15;;;;;;;8.48;1.80;;;;;;;10.95;74.89;99709.94;5032857;28;20441;-74
2021/05/04 02:04:41;;;;;;;7.75;1.67;;;;;;;10.92;75.98;99718.91;5014726;28;20467;-74
2021/05/04 02:07:06;;;;;;;7.35;1.73;;;;;;;10.95;74.68;99726.59;5017751;28;20028;-74
2021/05/04 02:09:32;;;;;;;6.20;1.95;;;;;;;10.97;74.07;99720.72;5035395;28;20017;-74
2021/05/04 02:11:57;;;;;;;7.85;1.92;;;;;;;10.99;74.46;99726.78;5017149;28;20045;-74
2021/05/04 02:14:23;;;;;;;8.73;1.80;;;;;;;11.00;74.87;99719.25;5012319;28;20113;-74
2021/05/04 02:16:48;;;;;;;7.43;1.60;;;;;;;10.99;76.70;99723.19;5000475;28;20504;-73
2021/05/04 02:19:14;;;;;;;11.18;1.70;;;;;;;11.00;77.17;99719.25;5005757;28;20037;-74
2021/05/04 02:21:39;;;;;;;8.38;1.90;;;;;;;11.00;74.63;99717.28;5015708;28;20045;-74
2021/05/04 02:24:05;;;;;;;8.43;2.00;;;;;;;11.02;75.65;99720.59;5029862;28;20072;-73
2021/05/04 02:26:31;;;;;;;11.35;1.92;;;;;;;10.99;75.67;99712.88;5016318;28;20452;-74
2021/05/04 02:28:56;;;;;;;4.93;1.30;;;;;;;11.02;75.29;99709.47;5042252;28;20114;-74
2021/05/04 02:31:22;;;;;;;7.53;1.73;;;;;;;11.03;76.11;99711.13;5025548;28;20087;-74
2021/05/04 02:33:47;;;;;;;6.13;1.40;;;;;;;10.99;76.49;99709.28;5033309;28;20065;-74
2021/05/04 02:36:13;;;;;;;3.72;1.20;;;;;;;11.02;76.89;99709.47;5028900;28;20080;-74
2021/05/04 02:38:39;;;;;;;6.05;1.45;;;;;;;11.03;76.42;99713.06;5057966;28;20037;-74
2021/05/04 02:41:05;;;;;;;7.75;2.05;;;;;;;10.99;77.47;99710.09;5022243;28;20053;-74
2021/05/04 02:43:30;;;;;;;6.38;1.50;;;;;;;11.02;76.85;99712.25;5044511;28;20037;-74
2021/05/04 02:45:57;;;;;;;5.10;1.52;;;;;;;10.99;75.94;99714.84;5020958;28;20489;-74
2021/05/04 02:48:22;;;;;;;6.03;1.40;;;;;;;11.00;75.39;99722.03;5024021;28;20049;-74
2021/05/04 02:50:48;;;;;;;5.18;1.20;;;;;;;11.00;74.96;99710.91;5023297;28;20029;-74
2021/05/04 02:53:13;;;;;;;5.65;1.30;;;;;;;11.00;77.07;99713.69;5031910;28;20021;-74
2021/05/04 02:55:39;;;;;;;3.42;1.23;;;;;;;10.99;76.73;99712.06;5013210;28;20037;-74
2021/05/04 02:58:04;;;;;;;6.30;1.50;;;;;;;10.97;77.86;99709.59;5027959;28;20034;-74
2021/05/04 03:00:30;;;;;;;4.55;1.33;;;;;;;11.01;77.53;99704.25;5066470;28;20022;-74
2021/05/04 03:02:56;;;;;;;3.15;1.20;;;;;;;10.98;77.24;99721.53;5014296;28;20026;-73
2021/05/04 03:05:21;;;;;;;3.00;1.15;;;;;;;10.99;75.24;99723.19;5015546;28;20026;-73
2021/05/04 03:07:46;;;;;;;4.65;1.15;;;;;;;11.00;77.60;99708.97;5041665;28;20038;-74
2021/05/04 03:10:12;;;;;;;4.55;1.35;;;;;;;10.99;75.64;99709.28;5033780;28;20028;-74
2021/05/04 03:12:38;;;;;;;4.07;1.38;;;;;;;11.03;75.88;99696.38;5040008;28;20103;-74
2021/05/04 03:15:04;;;;;;;5.00;1.17;;;;;;;11.00;76.47;99697.03;5033090;28;20037;-74
2021/05/04 03:17:29;;;;;;;5.07;1.17;;;;;;;10.99;76.62;99693.44;5050354;28;20029;-74
2021/05/04 03:19:55;;;;;;;5.13;1.40;;;;;;;11.02;76.91;99686.44;5069403;28;20031;-74
2021/05/04 03:22:20;;;;;;;6.60;1.20;;;;;;;11.00;76.81;99691.47;5035596;28;20033;-74
2021/05/04 03:24:46;;;;;;;6.35;1.50;;;;;;;10.99;77.45;99692.63;5020813;28;20037;-74
2021/05/04 03:27:11;;;;;;;5.75;1.17;;;;;;;10.99;76.33;99690.66;5028802;28;20037;-74
2021/05/04 03:29:37;;;;;;;3.80;1.25;;;;;;;11.01;77.11;99685.59;5025067;28;20485;-74
2021/05/04 03:32:02;;;;;;;4.70;1.00;;;;;;;11.02;77.51;99700.31;5008675;28;20056;-74
2021/05/04 03:34:28;;;;;;;4.13;1.17;;;;;;;11.01;76.45;99696.72;5020141;28;20041;-74
2021/05/04 03:36:53;;;;;;;4.30;1.30;;;;;;;11.02;79.33;99698.34;5019038;28;20049;-74
2021/05/04 03:39:19;;;;;;;5.15;1.40;;;;;;;11.03;77.37;99688.91;5018571;28;20029;-74
2021/05/04 03:41:45;;;;;;;6.18;1.30;;;;;;;11.01;77.94;99696.72;5013065;28;20036;-74
2021/05/04 03:44:10;;;;;;;4.45;1.20;;;;;;;11.03;77.21;99696.38;5019480;28;20060;-74
2021/05/04 03:46:36;;;;;;;5.10;1.20;;;;;;;11.03;77.63;99688.06;5001075;28;20033;-74
2021/05/04 03:49:01;;;;;;;3.28;1.10;;;;;;;11.04;76.97;99703.59;5039895;28;20500;-74
2021/05/04 03:51:27;;;;;;;2.95;1.00;;;;;;;11.04;77.18;99692.50;5017433;28;20124;-74
2021/05/04 03:53:52;;;;;;;5.13;1.48;;;;;;;11.02;77.63;99692.78;5015705;28;20558;-74
2021/05/04 03:56:18;;;;;;;3.47;1.17;;;;;;;11.04;76.92;99696.09;5020087;28;20477;-74
2021/05/04 03:58:43;;;;;;;4.15;0.93;;;;;;;11.02;76.64;99689.19;4987225;28;20036;-74
2021/05/04 04:01:09;;;;;;;4.88;1.08;;;;;;;11.05;77.33;99692.16;5025483;28;20029;-74
2021/05/04 04:03:34;;;;;;;3.88;1.13;;;;;;;11.03;78.56;99685.28;5034832;28;20092;-74
2021/05/04 04:06:00;;;;;;;3.88;0.80;;;;;;;11.03;76.65;99700.00;5030525;28;20030;-74
2021/05/04 04:08:25;;;;;;;3.60;1.17;;;;;;;11.02;76.64;99687.25;5039654;28;20048;-74
2021/05/04 04:10:51;;;;;;;4.13;0.98;;;;;;;11.06;77.92;99695.75;5017484;28;20433;-74
2021/05/04 04:13:16;;;;;;;5.05;1.05;;;;;;;11.01;76.43;99680.06;5032128;28;20021;-74
2021/05/04 04:15:42;;;;;;;4.68;1.10;;;;;;;11.04;76.39;99681.38;5067133;28;20037;-74
2021/05/04 04:18:07;;;;;;;4.85;1.08;;;;;;;11.06;77.30;99684.63;5029067;28;20037;-74
2021/05/04 04:20:33;;;;;;;2.17;0.90;;;;;;;11.02;76.68;99683.66;5025092;28;20034;-75
2021/05/04 04:22:59;;;;;;;2.92;1.00;;;;;;;11.04;75.99;99676.63;5035364;28;20033;-74
2021/05/04 04:25:24;;;;;;;5.53;1.40;;;;;;;11.03;75.96;99688.06;5028396;28;20033;-74
2021/05/04 04:27:50;;;;;;;3.00;1.15;;;;;;;11.05;75.99;99691.34;5041932;28;20075;-74
2021/05/04 04:30:16;;;;;;;5.32;1.20;;;;;;;11.02;77.93;99691.97;5025015;28;20049;-73
2021/05/04 04:32:43;;;;;;;4.00;1.00;;;;;;;10.99;75.50;99687.88;5027618;28;20035;-74
2021/05/04 04:35:09;;;;;;;4.38;1.30;;;;;;;11.00;75.75;99689.50;5000283;28;20437;-74
2021/05/04 04:37:35;;;;;;;2.30;0.80;;;;;;;11.00;75.71;99697.03;5030668;28;20079;-73
2021/05/04 04:40:00;;;;;;;1.98;0.88;;;;;;;11.01;76.81;99695.91;5029244;28;20083;-73
2021/05/04 04:42:26;;;;;;;1.60;0.88;;;;;;;10.99;76.68;99704.53;5035993;28;20087;-74
2021/05/04 04:44:51;;;;;;;3.25;0.93;;;;;;;10.99;76.20;99699.00;5031801;28;20025;-73
2021/05/04 04:47:17;;;;;;;4.28;1.00;;;;;;;11.00;76.26;99708.97;5018756;28;20486;-74
2021/05/04 04:49:42;;;;;;;2.95;1.00;;;;;;;11.01;76.18;99707.03;5016903;28;20038;-74
2021/05/04 04:52:08;;;;;;;2.83;0.85;;;;;;;10.94;75.91;99699.94;5014534;28;20029;-74
2021/05/04 04:54:34;;;;;;;2.78;1.08;;;;;;;10.96;77.05;99696.84;5034791;28;20486;-74
2021/05/04 04:57:00;;;;;;;2.95;0.93;;;;;;;10.95;76.71;99704.38;5034080;28;20121;-73
2021/05/04 04:59:25;;;;;;;2.80;0.82;;;;;;;11.00;76.21;99702.59;5031610;28;20086;-74
2021/05/04 05:01:51;;;;;;;4.85;1.08;;;;;;;10.98;77.04;99707.63;5033023;28;20061;-74
2021/05/04 05:04:16;;;;;;;2.95;1.00;;;;;;;10.99;77.16;99709.28;5033127;28;20032;-74
2021/05/04 05:06:43;;;;;;;2.30;0.70;;;;;;;10.95;76.40;99709.94;5044068;28;20052;-73
2021/05/04 05:09:08;;;;;;;3.25;0.85;;;;;;;10.94;75.89;99711.03;5033905;28;20080;-74
2021/05/04 05:11:37;;;;;;;2.45;0.90;;;;;;;10.94;77.06;99722.16;4997821;28;20376;-74
2021/05/04 05:14:04;;;;;;;3.78;1.00;;;;;;;10.95;77.04;99720.22;5011279;28;20363;-74
2021/05/04 05:16:32;;;;;;;3.95;0.80;;;;;;;10.93;77.25;99717.75;5059603;28;20026;-74
2021/05/04 05:18:57;;;;;;;6.43;1.33;;;;;;;10.92;76.48;99716.13;5010239;28;20025;-74
2021/05/04 05:21:23;;;;;;;4.53;1.08;;;;;;;10.95;77.23;99720.22;5003421;28;20036;-75
2021/05/04 05:23:48;;;;;;;6.40;1.05;;;;;;;10.95;78.76;99726.59;5030644;28;20556;-74
2021/05/04 05:26:15;;;;;;;3.58;0.98;;;;;;;10.99;77.18;99714.84;5048997;28;20064;-74
2021/05/04 05:28:41;;;;;;;6.70;1.15;;;;;;;10.99;77.91;99717.63;5023299;28;20026;-74
2021/05/04 05:31:06;;;;;;;4.18;1.00;;;;;;;10.93;77.47;99714.97;5060480;28;20091;-73
2021/05/04 05:33:32;;;;;;;5.70;1.17;;;;;;;10.95;76.69;99706.34;5022217;28;20060;-74
2021/05/04 05:35:57;;;;;;;5.60;1.10;;;;;;;10.95;77.20;99709.94;5028595;28;20049;-73
2021/05/04 05:38:23;;;;;;;5.00;1.20;;;;;;;10.98;76.44;99718.75;5025136;28;20037;-73
2021/05/04 05:40:49;;;;;;;6.53;1.00;;;;;;;10.96;76.68;99721.84;5021434;28;20030;-74
2021/05/04 05:43:14;;;;;;;5.82;1.10;;;;;;;10.95;76.50;99734.13;5027289;28;20033;-74
2021/05/04 05:45:40;;;;;;;5.88;1.02;;;;;;;10.95;76.12;99731.34;5005346;28;20032;-73
2021/05/04 05:48:05;;;;;;;7.10;1.23;;;;;;;10.96;75.86;99744.09;5022182;28;20032;-73
2021/05/04 05:50:31;;;;;;;2.58;0.88;;;;;;;10.95;75.54;99745.22;5030184;28;20033;-74
2021/05/04 05:52:56;;;;;;;6.40;1.40;;;;;;;10.94;75.94;99769.38;5016219;28;20033;-74
2021/05/04 05:55:22;;;;;;;4.07;1.20;;;;;;;10.93;75.66;99773.31;5027539;28;20033;-74
2021/05/04 05:57:47;;;;;;;6.07;1.38;;;;;;;10.91;76.13;99777.53;5045365;28;20033;-74
2021/05/04 06:00:16;;;;;;;10.57;1.23;;;;;;;10.88;75.98;99775.38;5045071;28;20025;-74
2021/05/04 06:02:41;;;;;;;10.15;1.73;;;;;;;10.87;75.94;99780.13;5012332;28;20037;-74
2021/05/04 06:05:07;;;;;;;7.65;1.20;;;;;;;10.87;75.50;99793.19;5039623;28;20041;-74
2021/05/04 06:07:33;;;;;;;5.60;1.30;;;;;;;10.86;75.44;99784.03;5031453;28;20033;-74
2021/05/04 06:09:58;;;;;;;9.48;1.35;;;;;;;10.87;75.57;99785.69;5014085;28;20029;-75
2021/05/04 06:12:24;;;;;;;10.18;1.42;;;;;;;10.83;75.35;99798.53;5018046;28;20040;-74
2021/05/04 06:14:49;;;;;;;11.85;1.75;;;;;;;10.85;76.23;99792.69;5014178;28;20037;-74
2021/05/04 06:17:15;;;;;;;7.88;1.60;;;;;;;10.83;75.88;99794.94;5064614;28;20033;-74
2021/05/04 06:19:40;;;;;;;11.85;2.22;;;;;;;10.84;76.08;99800.19;5004433;28;20486;-74
2021/05/04 06:22:06;;;;;;;13.48;2.10;;;;;;;10.85;76.53;99809.34;5014036;28;20032;-74
2021/05/04 06:24:31;;;;;;;8.38;1.65;;;;;;;10.83;75.98;99795.75;5032238;28;20025;-75
2021/05/04 06:26:57;;;;;;;11.07;1.90;;;;;;;10.83;76.76;99812.44;5032281;28;20091;-75
2021/05/04 06:29:22;;;;;;;9.50;1.80;;;;;;;10.83;75.94;99815.19;5063401;28;20410;-75
2021/05/04 06:31:53;;;;;;;15.07;2.28;;;;;;;10.85;76.42;99826.03;5031854;28;20394;-74
2021/05/04 06:34:18;;;;;;;12.60;2.55;;;;;;;10.81;76.89;99808.31;5032227;28;20033;-74
2021/05/04 06:36:44;;;;;;;14.15;2.50;;;;;;;10.80;75.88;99810.28;5028222;28;20068;-74
2021/05/04 06:39:09;;;;;;;13.55;2.67;;;;;;;10.79;76.06;99799.50;5022833;28;20037;-73
2021/05/04 06:41:35;;;;;;;8.55;2.05;;;;;;;10.77;76.23;99799.78;5044696;28;20194;-72
2021/05/04 06:44:05;;;;;;;17.30;2.63;;;;;;;10.79;75.62;99793.94;5036262;28;20080;-73
2021/05/04 06:46:31;;;;;;;15.95;2.70;;;;;;;10.74;75.60;99798.47;5051984;28;20087;-71
2021/05/04 06:48:57;;;;;;;12.52;2.63;;;;;;;10.75;75.33;99804.84;5017717;28;20067;-71
2021/05/04 06:51:23;;;;;;;12.48;2.55;;;;;;;10.76;76.54;99812.06;5038020;28;20041;-71
2021/05/04 06:53:49;;;;;;;12.68;2.40;;;;;;;10.73;77.32;99807.94;5004140;28;20087;-71
2021/05/04 06:56:14;;;;;;;14.80;2.58;;;;;;;10.69;77.50;99809.69;5052448;28;20052;-71
2021/05/04 06:58:40;;;;;;;12.80;2.38;;;;;;;10.73;76.56;99821.81;5035247;28;20029;-71
2021/05/04 07:01:05;;;;;;;12.48;2.42;;;;;;;10.72;75.97;99834.06;5039214;28;20025;-71
2021/05/04 07:03:31;;;;;;;12.93;2.70;;;;;;;10.74;75.83;99833.75;5038784;28;20025;-71
2021/05/04 07:05:56;;;;;;;12.18;2.53;;;;;;;10.76;76.41;99834.28;5034250;28;20036;-71
2021/05/04 07:08:22;;;;;;;11.48;2.35;;;;;;;10.79;76.18;99835.59;5031572;28;20478;-71
2021/05/04 07:10:47;;;;;;;16.70;3.15;;;;;;;10.80;76.62;99843.59;5015852;28;20026;-71
2021/05/04 07:13:16;;;;;;;19.80;2.28;;;;;;;10.80;77.54;99851.13;5030200;28;20092;-71
2021/05/04 07:15:42;;;;;;;13.30;2.95;;;;;;;10.80;77.15;99843.59;5012252;28;20026;-71
2021/05/04 07:18:09;;;;;;;15.38;2.67;;;;;;;10.82;76.33;99837.75;5017569;28;20034;-71
2021/05/04 07:20:36;;;;;;;13.95;2.38;;;;;;;10.84;75.84;99836.31;5029975;28;20030;-71
2021/05/04 07:23:04;;;;;;;16.92;2.75;;;;;;;10.85;77.67;99840.72;5050594;28;20029;-71
2021/05/04 07:25:30;;;;;;;13.13;2.95;;;;;;;10.89;77.03;99838.97;5034652;28;20057;-71
2021/05/04 07:27:55;;;;;;;15.80;2.53;;;;;;;10.90;75.85;99834.25;5050056;28;20079;-72
2021/05/04 07:30:21;;;;;;;12.02;2.80;;;;;;;10.91;77.36;99830.31;5025807;28;20017;-71
2021/05/04 07:32:46;;;;;;;17.15;2.72;;;;;;;10.93;77.75;99839.16;5034345;28;20037;-71
2021/05/04 07:35:12;;;;;;;10.43;2.00;;;;;;;10.97;76.90;99840.16;5017987;28;20084;-73
2021/05/04 07:37:39;;;;;;;16.13;2.58;;;;;;;11.03;78.46;99843.66;5037790;28;20490;-72
2021/05/04 07:40:05;;;;;;;12.85;2.40;;;;;;;11.08;77.66;99837.97;5012026;28;20037;-72
2021/05/04 07:42:30;;;;;;;11.63;2.45;;;;;;;11.13;77.40;99838.69;5031811;28;20049;-72
2021/05/04 07:44:56;;;;;;;17.23;2.53;;;;;;;11.18;77.59;99841.34;5007034;28;20028;-72
2021/05/04 07:47:21;;;;;;;19.58;3.15;;;;;;;11.25;79.21;99840.09;5004149;28;20063;-71
2021/05/04 07:49:48;;;;;;;11.00;2.40;;;;;;;11.30;77.27;99831.63;5016873;28;20026;-71
2021/05/04 07:52:14;;;;;;;14.10;2.40;;;;;;;11.36;76.54;99836.72;5014876;28;20033;-71
2021/05/04 07:54:39;;;;;;;15.63;2.58;;;;;;;11.43;77.81;99835.50;5021136;28;20088;-71
2021/05/04 07:57:05;;;;;;;16.73;2.50;;;;;;;11.49;77.61;99843.38;5032931;28;20481;-71
2021/05/04 07:59:31;;;;;;;13.02;2.60;;;;;;;11.55;77.63;99844.88;5031862;28;20419;-71
2021/05/04 08:01:58;;;;;;;14.10;2.80;;;;;;;11.60;78.79;99838.38;5017489;28;20030;-71
2021/05/04 08:04:24;;;;;;;14.73;2.80;;;;;;;11.65;78.54;99846.59;5014050;28;20057;-71
2021/05/04 08:06:49;;;;;;;18.00;3.55;;;;;;;11.69;78.32;99849.56;5009916;28;20049;-71
2021/05/04 08:09:15;;;;;;;15.43;3.20;;;;;;;11.71;78.03;99855.63;5004029;28;20034;-71
2021/05/04 08:11:40;;;;;;;18.48;3.03;;;;;;;11.75;78.51;99856.63;5047158;28;20115;-71
2021/05/04 08:14:07;;;;;;;15.68;2.80;;;;;;;11.76;77.49;99855.50;5018174;28;20067;-71
2021/05/04 08:16:33;;;;;;;16.73;3.00;;;;;;;11.76;77.67;99861.88;5019606;28;20048;-71
2021/05/04 08:18:58;;;;;;;13.93;2.72;;;;;;;11.79;77.68;99864.03;5033077;28;20405;-71
2021/05/04 08:21:25;;;;;;;18.02;3.72;;;;;;;11.79;78.41;99871.56;5002344;28;20033;-71
2021/05/04 08:23:52;;;;;;;20.13;3.97;;;;;;;11.80;78.22;99862.88;5048961;28;20418;-71
2021/05/04 08:26:17;;;;;;;17.25;3.45;;;;;;;11.81;79.16;99875.69;5065654;28;20048;-72
2021/05/04 08:28:45;;;;;;;18.02;3.13;;;;;;;11.82;78.13;99877.31;5019648;28;20049;-72
2021/05/04 08:31:10;;;;;;;16.15;2.90;;;;;;;11.83;78.07;99872.56;5027143;28;20034;-73
2021/05/04 08:33:36;;;;;;;18.88;4.18;;;;;;;11.84;77.51;99877.81;5039662;28;20123;-72
2021/05/04 08:36:01;;;;;;;15.25;2.80;;;;;;;11.84;75.75;99869.47;4986559;28;20398;-75
2021/05/04 08:38:27;;;;;;;14.88;2.70;;;;;;;11.87;76.69;99872.75;5031453;28;20057;-75
2021/05/04 08:40:52;;;;;;;15.50;2.83;;;;;;;11.90;74.98;99869.38;5030323;28;20025;-74
2021/05/04 08:43:23;;;;;;;16.13;2.67;;;;;;;11.94;75.63;99871.19;5031369;28;20033;-74
2021/05/04 08:45:56;;;;;;;14.75;3.13;;;;;;;11.97;74.95;99873.31;5013937;28;20021;-72
2021/05/04 08:48:22;;;;;;;13.15;2.97;;;;;;;11.99;75.57;99876.63;5035010;28;20059;-73
2021/05/04 08:50:48;;;;;;;18.55;3.88;;;;;;;12.04;75.18;99881.22;4986783;28;20036;-72
2021/05/04 08:53:13;;;;;;;16.30;3.22;;;;;;;12.05;75.49;99883.69;5014487;28;21643;-73
2021/05/04 08:55:39;;;;;;;17.80;3.25;;;;;;;12.09;75.47;99878.31;5015521;28;20149;-72
2021/05/04 08:58:04;;;;;;;16.10;3.10;;;;;;;12.10;75.35;99868.81;5016677;28;20037;-72
2021/05/04 09:00:30;;;;;;;20.33;3.33;;;;;;;12.12;75.40;99872.09;5002586;28;20046;-72
2021/05/04 09:03:09;;;;;;;17.63;3.45;;;;;;;12.13;75.37;99868.19;5016872;28;20041;-72
2021/05/04 09:05:55;;;;;;;21.08;3.80;;;;;;;12.16;75.78;99866.72;4987903;28;20548;-73
2021/05/04 09:14:07;;;;;;;16.42;3.65;;;;;;;12.20;75.13;99878.84;5061351;28;20037;-73
2021/05/04 09:16:49;;;;;;;17.85;4.00;;;;;;;12.23;75.21;99884.59;5042635;28;20056;-73
2021/05/04 09:21:43;;;;;;;20.02;4.07;;;;;;;12.30;75.42;99882.16;5028900;28;20116;-72
2021/05/04 09:24:30;;;;;;;16.23;3.15;;;;;;;12.36;75.38;99868.09;5031137;28;20060;-73
2021/05/04 09:27:09;;;;;;;15.57;3.72;;;;;;;12.42;75.10;99883.53;5014997;28;20041;-72
2021/05/04 09:29:43;;;;;;;14.50;3.63;;;;;;;12.48;75.24;99879.44;5029849;28;20474;-72
2021/05/04 09:32:10;;;;;;;22.02;4.28;;;;;;;12.55;76.10;99879.00;5022560;28;20025;-72
2021/05/04 09:35:00;;;;;;;20.98;4.05;;;;;;;12.60;75.93;99879.66;5006080;28;20036;-73
2021/05/04 09:37:27;;;;;;;23.10;4.28;;;;;;;12.64;76.39;99886.22;5045957;28;20584;-72
2021/05/04 09:39:54;;;;;;;20.05;3.80;;;;;;;12.68;75.65;99887.22;5013374;28;20038;-73
2021/05/04 09:42:20;;;;;;;19.77;3.80;;;;;;;12.73;75.71;99878.72;5033056;28;20033;-72
2021/05/04 09:44:49;;;;;;;21.17;4.22;;;;;;;12.77;75.99;99883.66;5029140;28;20045;-72
2021/05/04 09:47:19;;;;;;;18.58;4.30;;;;;;;12.80;75.63;99885.78;5029455;28;20029;-72
2021/05/04 09:49:45;;;;;;;19.90;4.65;;;;;;;12.81;75.41;99884.63;4999178;28;20030;-73
2021/05/04 09:55:05;;;;;;;22.63;4.40;;;;;;;12.83;75.67;99880.38;5034601;28;20045;-72
2021/05/04 09:57:40;;;;;;;21.00;4.05;;;;;;;12.87;75.61;99877.75;5042288;28;20449;-73
2021/05/04 10:00:23;;;;;;;18.90;3.83;;;;;;;12.88;75.52;99885.00;5044574;28;20481;-72
2021/05/04 10:02:48;;;;;;;25.50;4.50;;;;;;;12.88;75.25;99880.22;5028670;28;20733;-72
2021/05/04 10:05:17;;;;;;;24.02;4.75;;;;;;;12.92;75.47;99897.09;5001604;28;20033;-73
2021/05/04 10:07:42;;;;;;;22.13;4.10;;;;;;;12.94;75.68;99911.56;4985216;28;20565;-72
2021/05/04 10:10:10;;;;;;;27.83;4.30;;;;;;;12.92;75.58;99908.25;5000712;28;20136;-72
2021/05/04 10:12:45;;;;;;;19.25;3.80;;;;;;;12.84;75.94;99904.34;5048893;28;20047;-72
2021/05/04 10:15:12;;;;;;;18.08;4.15;;;;;;;12.83;75.22;99905.47;5015591;28;20025;-72
2021/05/04 10:17:38;;;;;;;23.98;4.30;;;;;;;12.80;75.55;99900.53;5020419;28;20371;-72
2021/05/04 10:20:09;;;;;;;17.63;4.00;;;;;;;12.78;75.47;99902.00;5045545;28;20506;-72
2021/05/04 10:22:35;;;;;;;17.02;3.28;;;;;;;12.77;75.43;99903.16;5045047;28;20029;-72
2021/05/04 10:25:01;;;;;;;15.02;3.13;;;;;;;12.77;75.83;99894.78;4989249;28;20037;-72
2021/05/04 10:27:27;;;;;;;15.25;3.50;;;;;;;12.77;75.57;99895.59;5049298;28;20030;-72
2021/05/04 10:29:53;;;;;;;22.05;3.70;;;;;;;12.80;75.25;99894.16;5000065;28;20704;-75
2021/05/04 10:35:48;;;;;;;19.88;4.32;;;;;;;13.07;77.10;99888.28;5033211;28;20041;-75
2021/05/04 10:38:15;;;;;;;13.63;3.60;;;;;;;13.19;77.43;99902.41;5019946;28;20037;-75
2021/05/04 10:40:46;;;;;;;18.10;4.00;;;;;;;13.33;77.70;99905.06;5035069;28;20152;-75
2021/05/04 10:43:27;;;;;;;14.50;3.35;;;;;;;13.44;76.36;99897.22;5033860;28;20029;-73
2021/05/04 10:45:54;;;;;;;13.48;3.42;;;;;;;13.54;76.77;99898.81;5034521;28;20030;-68
2021/05/04 10:48:41;;;;;;;14.02;2.70;;;;;;;13.64;77.66;99913.28;5036887;28;20083;-68
2021/05/04 10:51:20;;;;;;;13.48;2.83;;;;;;;13.72;76.79;99913.59;5033536;28;20034;-68
2021/05/04 10:53:49;;;;;;;14.18;2.50;;;;;;;13.80;77.43;99915.56;5019458;28;20033;-69
2021/05/04 10:56:15;;;;;;;13.40;2.15;;;;;;;13.88;77.50;99909.16;5037337;28;20029;-69
2021/05/04 10:58:51;;;;;;;11.30;2.75;;;;;;;13.98;77.35;99906.00;5037092;28;20037;-69
2021/05/04 11:01:20;;;;;;;9.77;1.83;;;;;;;14.04;77.43;99887.94;5020156;28;20123;-69
2021/05/04 11:03:46;;;;;;;9.45;2.38;;;;;;;14.13;77.50;99895.47;5048517;28;20037;-69
2021/05/04 11:06:14;;;;;;;10.90;2.05;;;;;;;14.20;76.65;99899.38;5048822;28;20045;-69
2021/05/04 11:08:42;;;;;;;8.38;1.60;;;;;;;14.28;75.86;99901.31;5037808;28;20087;-68
2021/05/04 11:11:21;;;;;;;4.13;1.30;;;;;;;14.34;75.09;99907.53;5033281;28;20104;-68
2021/05/04 11:13:50;;;;;;;9.80;1.85;;;;;;;14.42;74.59;99901.09;5024862;28;20026;-68
2021/05/04 11:16:33;;;;;;;9.77;1.40;;;;;;;14.48;74.14;99908.16;5005658;28;20022;-68
2021/05/04 11:19:05;;;;;;;5.55;1.38;;;;;;;14.52;74.81;99914.75;5021254;28;20036;-68
2021/05/04 11:21:42;;;;;;;4.63;1.17;;;;;;;14.57;74.04;99916.56;4988810;28;20052;-68
2021/05/04 11:24:12;;;;;;;7.28;1.17;;;;;;;14.59;73.48;99902.22;5018287;28;20041;-68
2021/05/04 11:26:55;;;;;;;4.63;1.30;;;;;;;14.60;73.99;99915.03;5015385;28;20033;-68
2021/05/04 11:29:21;;;;;;;5.35;1.10;;;;;;;14.62;73.45;99913.53;5022339;28;20029;-69
2021/05/04 11:31:48;;;;;;;6.53;1.15;;;;;;;14.63;73.60;99909.63;5034700;28;20049;-68
2021/05/04 11:34:37;;;;;;;7.03;1.27;;;;;;;14.65;74.08;99917.66;4996763;28;20053;-69
2021/05/04 11:37:03;;;;;;;6.72;1.52;;;;;;;14.64;73.85;99916.03;5033586;28;20452;-68
2021/05/04 11:39:29;;;;;;;5.18;1.23;;;;;;;14.64;73.63;99921.59;5027914;28;20104;-69
2021/05/04 11:41:59;;;;;;;9.05;1.88;;;;;;;14.62;73.78;99921.13;5013329;28;20059;-68